sensor_id;sensor_type;location;lat;lon;timestamp;pressure;altitude;pressure_sealevel;temperature;humidity
77013;BME280;67260;53.130;17.982;2023-11-21T00:01:58;100586.44;;;0.75;94.36
77013;BME280;67260;53.130;17.982;2023-11-21T00:04:25;100585.17;;;0.76;94.12
77013;BME280;67260;53.130;17.982;2023-11-21T00:07:17;100591.40;;;0.78;94.07
77013;BME280;67260;53.130;17.982;2023-11-21T00:09:43;100596.20;;;0.77;93.87
77013;BME280;67260;53.130;17.982;2023-11-21T00:12:10;100598.42;;;0.77;93.94
77013;BME280;67260;53.130;17.982;2023-11-21T00:14:37;100600.75;;;0.78;94.17
77013;BME280;67260;53.130;17.982;2023-11-21T00:17:30;100605.48;;;0.80;94.11
77013;BME280;67260;53.130;17.982;2023-11-21T00:28:41;100612.40;;;0.70;93.74
77013;BME280;67260;53.130;17.982;2023-11-21T00:31:18;100608.44;;;0.68;93.85
77013;BME280;67260;53.130;17.982;2023-11-21T00:34:30;100610.04;;;0.67;94.08
77013;BME280;67260;53.130;17.982;2023-11-21T00:37:22;100611.43;;;0.71;94.29
77013;BME280;67260;53.130;17.982;2023-11-21T00:39:52;100615.16;;;0.69;93.82
77013;BME280;67260;53.130;17.982;2023-11-21T00:42:24;100618.58;;;0.63;93.60
77013;BME280;67260;53.130;17.982;2023-11-21T00:44:51;100624.45;;;0.62;93.76
77013;BME280;67260;53.130;17.982;2023-11-21T00:49:46;100630.24;;;0.58;93.88
77013;BME280;67260;53.130;17.982;2023-11-21T00:55:25;100637.83;;;0.63;94.06
77013;BME280;67260;53.130;17.982;2023-11-21T00:58:18;100638.48;;;0.60;93.79
77013;BME280;67260;53.130;17.982;2023-11-21T01:01:08;100645.27;;;0.57;93.89
77013;BME280;67260;53.130;17.982;2023-11-21T01:03:35;100640.38;;;0.58;94.11
77013;BME280;67260;53.130;17.982;2023-11-21T01:08:49;100644.80;;;0.57;93.93
77013;BME280;67260;53.130;17.982;2023-11-21T01:11:16;100649.06;;;0.52;93.52
77013;BME280;67260;53.130;17.982;2023-11-21T01:13:43;100653.59;;;0.47;93.31
77013;BME280;67260;53.130;17.982;2023-11-21T01:16:12;100658.64;;;0.41;93.17
77013;BME280;67260;53.130;17.982;2023-11-21T01:18:48;100661.95;;;0.36;92.89
77013;BME280;67260;53.130;17.982;2023-11-21T01:21:15;100657.36;;;0.31;93.11
77013;BME280;67260;53.130;17.982;2023-11-21T01:23:41;100667.70;;;0.30;93.21
77013;BME280;67260;53.130;17.982;2023-11-21T01:26:08;100664.55;;;0.28;93.28
77013;BME280;67260;53.130;17.982;2023-11-21T01:28:37;100665.23;;;0.28;93.31
77013;BME280;67260;53.130;17.982;2023-11-21T01:31:04;100669.27;;;0.28;93.39
77013;BME280;67260;53.130;17.982;2023-11-21T01:33:30;100672.39;;;0.26;93.34
77013;BME280;67260;53.130;17.982;2023-11-21T01:35:58;100677.80;;;0.26;93.27
77013;BME280;67260;53.130;17.982;2023-11-21T01:38:34;100676.02;;;0.25;93.25
77013;BME280;67260;53.130;17.982;2023-11-21T01:41:44;100665.21;;;0.25;93.48
77013;BME280;67260;53.130;17.982;2023-11-21T01:44:21;100668.31;;;0.25;93.59
77013;BME280;67260;53.130;17.982;2023-11-21T01:46:50;100671.48;;;0.23;93.32
77013;BME280;67260;53.130;17.982;2023-11-21T01:49:33;100676.57;;;0.22;93.49
77013;BME280;67260;53.130;17.982;2023-11-21T01:52:00;100680.64;;;0.22;93.47
77013;BME280;67260;53.130;17.982;2023-11-21T01:54:30;100684.66;;;0.18;93.31
77013;BME280;67260;53.130;17.982;2023-11-21T01:57:01;100693.65;;;0.20;93.81
77013;BME280;67260;53.130;17.982;2023-11-21T01:59:34;100693.34;;;0.24;93.87
77013;BME280;67260;53.130;17.982;2023-11-21T02:02:01;100693.27;;;0.26;93.81
77013;BME280;67260;53.130;17.982;2023-11-21T02:04:28;100690.08;;;0.23;93.22
77013;BME280;67260;53.130;17.982;2023-11-21T02:07:20;100690.30;;;0.19;93.06
77013;BME280;67260;53.130;17.982;2023-11-21T02:09:49;100689.02;;;0.16;93.13
77013;BME280;67260;53.130;17.982;2023-11-21T02:12:31;100696.55;;;0.16;93.22
77013;BME280;67260;53.130;17.982;2023-11-21T02:14:57;100696.80;;;0.11;92.89
77013;BME280;67260;53.130;17.982;2023-11-21T02:17:24;100692.33;;;0.07;93.00
77013;BME280;67260;53.130;17.982;2023-11-21T02:20:06;100696.09;;;0.11;93.46
77013;BME280;67260;53.130;17.982;2023-11-21T02:22:35;100697.43;;;0.16;93.59
77013;BME280;67260;53.130;17.982;2023-11-21T02:25:05;100695.17;;;0.15;93.30
77013;BME280;67260;53.130;17.982;2023-11-21T02:27:34;100696.27;;;0.17;93.30
77013;BME280;67260;53.130;17.982;2023-11-21T02:30:08;100699.44;;;0.15;93.22
77013;BME280;67260;53.130;17.982;2023-11-21T02:37:01;100707.75;;;0.06;92.84
77013;BME280;67260;53.130;17.982;2023-11-21T02:39:28;100709.64;;;0.02;92.73
77013;BME280;67260;53.130;17.982;2023-11-21T02:45:07;100713.17;;;-0.06;92.68
77013;BME280;67260;53.130;17.982;2023-11-21T02:47:34;100711.44;;;-0.08;92.65
77013;BME280;67260;53.130;17.982;2023-11-21T02:50:01;100717.10;;;-0.09;92.97
77013;BME280;67260;53.130;17.982;2023-11-21T02:52:32;100723.09;;;-0.10;92.94
77013;BME280;67260;53.130;17.982;2023-11-21T02:54:59;100723.13;;;-0.10;92.69
77013;BME280;67260;53.130;17.982;2023-11-21T02:57:26;100724.20;;;-0.12;92.62
77013;BME280;67260;53.130;17.982;2023-11-21T02:59:53;100732.14;;;-0.12;92.57
77013;BME280;67260;53.130;17.982;2023-11-21T03:02:20;100733.92;;;-0.10;92.70
77013;BME280;67260;53.130;17.982;2023-11-21T03:04:47;100738.65;;;-0.07;92.86
77013;BME280;67260;53.130;17.982;2023-11-21T03:07:16;100739.91;;;-0.07;92.16
77013;BME280;67260;53.130;17.982;2023-11-21T03:09:48;100738.30;;;-0.10;91.89
77013;BME280;67260;53.130;17.982;2023-11-21T03:12:23;100737.39;;;-0.12;91.98
77013;BME280;67260;53.130;17.982;2023-11-21T03:15:01;100742.22;;;-0.13;91.77
77013;BME280;67260;53.130;17.982;2023-11-21T03:20:48;100750.06;;;-0.12;91.85
77013;BME280;67260;53.130;17.982;2023-11-21T03:23:15;100750.11;;;-0.14;91.69
77013;BME280;67260;53.130;17.982;2023-11-21T03:25:42;100755.61;;;-0.17;91.40
77013;BME280;67260;53.130;17.982;2023-11-21T03:28:09;100754.84;;;-0.20;91.20
77013;BME280;67260;53.130;17.982;2023-11-21T03:30:37;100761.73;;;-0.21;91.01
77013;BME280;67260;53.130;17.982;2023-11-21T03:33:04;100762.55;;;-0.23;91.44
77013;BME280;67260;53.130;17.982;2023-11-21T03:35:30;100767.85;;;-0.24;91.47
77013;BME280;67260;53.130;17.982;2023-11-21T03:37:58;100767.33;;;-0.25;91.65
77013;BME280;67260;53.130;17.982;2023-11-21T03:40:25;100767.14;;;-0.25;91.86
77013;BME280;67260;53.130;17.982;2023-11-21T03:42:51;100764.83;;;-0.25;91.98
77013;BME280;67260;53.130;17.982;2023-11-21T03:45:20;100765.79;;;-0.24;91.72
77013;BME280;67260;53.130;17.982;2023-11-21T03:47:48;100767.83;;;-0.25;91.49
77013;BME280;67260;53.130;17.982;2023-11-21T03:50:15;100765.11;;;-0.26;91.65
77013;BME280;67260;53.130;17.982;2023-11-21T03:52:43;100759.36;;;-0.24;91.50
77013;BME280;67260;53.130;17.982;2023-11-21T03:55:10;100761.28;;;-0.24;91.48
77013;BME280;67260;53.130;17.982;2023-11-21T03:57:37;100760.63;;;-0.23;91.39
77013;BME280;67260;53.130;17.982;2023-11-21T04:00:06;100760.14;;;-0.21;91.45
77013;BME280;67260;53.130;17.982;2023-11-21T04:02:38;100761.21;;;-0.18;91.66
77013;BME280;67260;53.130;17.982;2023-11-21T04:05:06;100769.87;;;-0.15;91.39
77013;BME280;67260;53.130;17.982;2023-11-21T04:07:33;100768.85;;;-0.17;91.35
77013;BME280;67260;53.130;17.982;2023-11-21T04:10:00;100771.13;;;-0.18;91.45
77013;BME280;67260;53.130;17.982;2023-11-21T04:12:30;100774.09;;;-0.19;91.09
77013;BME280;67260;53.130;17.982;2023-11-21T04:14:57;100778.21;;;-0.23;91.08
77013;BME280;67260;53.130;17.982;2023-11-21T04:20:15;100786.48;;;-0.23;91.10
77013;BME280;67260;53.130;17.982;2023-11-21T04:22:43;100791.81;;;-0.25;91.06
77013;BME280;67260;53.130;17.982;2023-11-21T04:25:11;100793.65;;;-0.28;91.00
77013;BME280;67260;53.130;17.982;2023-11-21T04:27:39;100799.30;;;-0.31;90.74
77013;BME280;67260;53.130;17.982;2023-11-21T04:30:07;100796.68;;;-0.35;90.82
77013;BME280;67260;53.130;17.982;2023-11-21T04:32:33;100799.84;;;-0.35;91.29
77013;BME280;67260;53.130;17.982;2023-11-21T04:35:00;100800.80;;;-0.35;91.38
77013;BME280;67260;53.130;17.982;2023-11-21T04:37:27;100800.83;;;-0.37;90.87
77013;BME280;67260;53.130;17.982;2023-11-21T04:39:53;100799.46;;;-0.43;90.74
77013;BME280;67260;53.130;17.982;2023-11-21T04:42:20;100802.13;;;-0.43;91.20
77013;BME280;67260;53.130;17.982;2023-11-21T04:44:48;100803.75;;;-0.44;91.03
77013;BME280;67260;53.130;17.982;2023-11-21T04:47:15;100813.99;;;-0.44;91.11
77013;BME280;67260;53.130;17.982;2023-11-21T04:49:42;100818.19;;;-0.48;90.26
77013;BME280;67260;53.130;17.982;2023-11-21T04:52:10;100820.67;;;-0.53;90.49
77013;BME280;67260;53.130;17.982;2023-11-21T04:54:37;100825.41;;;-0.55;90.34
77013;BME280;67260;53.130;17.982;2023-11-21T04:57:03;100831.59;;;-0.56;90.56
77013;BME280;67260;53.130;17.982;2023-11-21T04:59:34;100837.25;;;-0.55;90.70
77013;BME280;67260;53.130;17.982;2023-11-21T05:02:01;100836.89;;;-0.55;90.53
77013;BME280;67260;53.130;17.982;2023-11-21T05:04:28;100842.56;;;-0.54;90.38
77013;BME280;67260;53.130;17.982;2023-11-21T05:06:55;100845.13;;;-0.56;90.10
77013;BME280;67260;53.130;17.982;2023-11-21T05:09:22;100848.52;;;-0.59;90.13
77013;BME280;67260;53.130;17.982;2023-11-21T05:11:49;100854.05;;;-0.62;89.80
77013;BME280;67260;53.130;17.982;2023-11-21T05:14:15;100848.47;;;-0.64;90.12
77013;BME280;67260;53.130;17.982;2023-11-21T05:16:42;100850.01;;;-0.66;90.25
77013;BME280;67260;53.130;17.982;2023-11-21T05:19:09;100851.02;;;-0.66;90.40
77013;BME280;67260;53.130;17.982;2023-11-21T05:21:36;100848.48;;;-0.67;90.40
77013;BME280;67260;53.130;17.982;2023-11-21T05:24:03;100849.01;;;-0.69;90.69
77013;BME280;67260;53.130;17.982;2023-11-21T05:26:30;100849.34;;;-0.69;90.94
77013;BME280;67260;53.130;17.982;2023-11-21T05:28:57;100853.54;;;-0.67;91.19
77013;BME280;67260;53.130;17.982;2023-11-21T05:31:23;100862.15;;;-0.63;91.20
77013;BME280;67260;53.130;17.982;2023-11-21T05:33:50;100868.83;;;-0.62;91.13
77013;BME280;67260;53.130;17.982;2023-11-21T05:36:18;100870.94;;;-0.63;91.00
77013;BME280;67260;53.130;17.982;2023-11-21T05:38:49;100874.58;;;-0.62;90.97
77013;BME280;67260;53.130;17.982;2023-11-21T05:41:17;100877.63;;;-0.59;91.04
77013;BME280;67260;53.130;17.982;2023-11-21T05:43:44;100882.66;;;-0.57;90.68
77013;BME280;67260;53.130;17.982;2023-11-21T05:46:11;100885.33;;;-0.58;90.50
77013;BME280;67260;53.130;17.982;2023-11-21T05:48:37;100891.96;;;-0.60;90.62
77013;BME280;67260;53.130;17.982;2023-11-21T05:51:05;100891.86;;;-0.59;90.88
77013;BME280;67260;53.130;17.982;2023-11-21T05:53:33;100893.95;;;-0.57;91.07
77013;BME280;67260;53.130;17.982;2023-11-21T05:56:00;100895.52;;;-0.55;91.20
77013;BME280;67260;53.130;17.982;2023-11-21T05:58:47;100895.54;;;-0.53;91.13
77013;BME280;67260;53.130;17.982;2023-11-21T06:01:13;100901.25;;;-0.53;90.89
77013;BME280;67260;53.130;17.982;2023-11-21T06:03:49;100908.91;;;-0.51;91.01
77013;BME280;67260;53.130;17.982;2023-11-21T06:06:21;100910.67;;;-0.47;91.27
77013;BME280;67260;53.130;17.982;2023-11-21T06:08:49;100919.27;;;-0.46;90.66
77013;BME280;67260;53.130;17.982;2023-11-21T06:11:16;100922.46;;;-0.45;90.85
77013;BME280;67260;53.130;17.982;2023-11-21T06:13:44;100928.39;;;-0.45;90.81
77013;BME280;67260;53.130;17.982;2023-11-21T06:16:14;100929.11;;;-0.45;90.73
77013;BME280;67260;53.130;17.982;2023-11-21T06:18:43;100935.25;;;-0.48;90.59
77013;BME280;67260;53.130;17.982;2023-11-21T06:21:12;100943.05;;;-0.49;90.61
77013;BME280;67260;53.130;17.982;2023-11-21T06:23:41;100945.33;;;-0.54;90.32
77013;BME280;67260;53.130;17.982;2023-11-21T06:26:07;100955.25;;;-0.58;90.08
77013;BME280;67260;53.130;17.982;2023-11-21T06:28:39;100960.67;;;-0.60;90.27
77013;BME280;67260;53.130;17.982;2023-11-21T06:33:49;100968.86;;;-0.63;89.98
77013;BME280;67260;53.130;17.982;2023-11-21T06:36:20;100972.23;;;-0.63;89.86
77013;BME280;67260;53.130;17.982;2023-11-21T06:38:47;100974.48;;;-0.66;89.42
77013;BME280;67260;53.130;17.982;2023-11-21T06:41:14;100974.81;;;-0.65;89.87
77013;BME280;67260;53.130;17.982;2023-11-21T06:43:41;100978.77;;;-0.65;89.41
77013;BME280;67260;53.130;17.982;2023-11-21T06:46:13;100980.65;;;-0.62;89.37
77013;BME280;67260;53.130;17.982;2023-11-21T06:48:42;100981.61;;;-0.59;89.31
77013;BME280;67260;53.130;17.982;2023-11-21T06:51:10;100985.18;;;-0.58;89.07
77013;BME280;67260;53.130;17.982;2023-11-21T06:53:37;100987.63;;;-0.56;88.73
77013;BME280;67260;53.130;17.982;2023-11-21T06:56:04;100993.48;;;-0.56;88.83
77013;BME280;67260;53.130;17.982;2023-11-21T06:58:33;100995.13;;;-0.52;88.73
77013;BME280;67260;53.130;17.982;2023-11-21T07:01:01;100998.44;;;-0.52;87.50
77013;BME280;67260;53.130;17.982;2023-11-21T07:03:29;101003.40;;;-0.53;88.14
77013;BME280;67260;53.130;17.982;2023-11-21T07:05:56;101008.18;;;-0.53;88.08
77013;BME280;67260;53.130;17.982;2023-11-21T07:08:22;101015.16;;;-0.51;87.94
77013;BME280;67260;53.130;17.982;2023-11-21T07:10:49;101018.02;;;-0.49;87.48
77013;BME280;67260;53.130;17.982;2023-11-21T07:18:14;101023.74;;;-0.53;87.14
77013;BME280;67260;53.130;17.982;2023-11-21T07:20:41;101026.80;;;-0.57;86.81
77013;BME280;67260;53.130;17.982;2023-11-21T07:23:08;101030.90;;;-0.58;87.25
77013;BME280;67260;53.130;17.982;2023-11-21T07:29:18;101038.86;;;-0.55;87.87
77013;BME280;67260;53.130;17.982;2023-11-21T07:31:56;101045.98;;;-0.53;87.35
77013;BME280;67260;53.130;17.982;2023-11-21T07:34:22;101044.67;;;-0.54;87.20
77013;BME280;67260;53.130;17.982;2023-11-21T07:39:35;101048.35;;;-0.54;87.05
77013;BME280;67260;53.130;17.982;2023-11-21T07:42:05;101057.09;;;-0.53;86.70
77013;BME280;67260;53.130;17.982;2023-11-21T07:44:31;101064.48;;;-0.50;86.65
77013;BME280;67260;53.130;17.982;2023-11-21T07:47:01;101056.12;;;-0.50;85.82
77013;BME280;67260;53.130;17.982;2023-11-21T07:49:28;101050.91;;;-0.49;84.78
77013;BME280;67260;53.130;17.982;2023-11-21T07:51:55;101051.21;;;-0.49;84.79
77013;BME280;67260;53.130;17.982;2023-11-21T07:54:22;101051.77;;;-0.48;84.77
77013;BME280;67260;53.130;17.982;2023-11-21T07:56:50;101057.21;;;-0.46;84.35
77013;BME280;67260;53.130;17.982;2023-11-21T07:59:21;101054.48;;;-0.45;84.28
77013;BME280;67260;53.130;17.982;2023-11-21T08:04:48;101053.96;;;-0.32;84.53
77013;BME280;67260;53.130;17.982;2023-11-21T08:07:17;101061.10;;;-0.28;83.54
77013;BME280;67260;53.130;17.982;2023-11-21T08:09:44;101060.77;;;-0.24;84.38
77013;BME280;67260;53.130;17.982;2023-11-21T08:12:15;101062.05;;;-0.16;84.87
77013;BME280;67260;53.130;17.982;2023-11-21T08:14:43;101063.85;;;-0.09;84.06
77013;BME280;67260;53.130;17.982;2023-11-21T08:17:13;101067.59;;;-0.02;83.50
77013;BME280;67260;53.130;17.982;2023-11-21T08:19:41;101068.14;;;0.08;84.14
77013;BME280;67260;53.130;17.982;2023-11-21T08:22:08;101070.82;;;0.11;84.04
77013;BME280;67260;53.130;17.982;2023-11-21T08:27:59;101070.73;;;0.06;82.57
77013;BME280;67260;53.130;17.982;2023-11-21T08:33:36;101072.76;;;0.19;82.39
77013;BME280;67260;53.130;17.982;2023-11-21T08:36:08;101072.69;;;0.22;82.76
77013;BME280;67260;53.130;17.982;2023-11-21T08:45:10;101074.86;;;0.71;81.19
77013;BME280;67260;53.130;17.982;2023-11-21T08:47:39;101071.18;;;0.89;81.21
77013;BME280;67260;53.130;17.982;2023-11-21T08:50:12;101071.04;;;1.15;80.36
77013;BME280;67260;53.130;17.982;2023-11-21T08:52:39;101077.98;;;1.43;79.55
77013;BME280;67260;53.130;17.982;2023-11-21T08:55:07;101071.13;;;1.40;78.43
77013;BME280;67260;53.130;17.982;2023-11-21T08:57:36;101075.02;;;1.49;78.33
77013;BME280;67260;53.130;17.982;2023-11-21T09:02:45;101082.25;;;1.59;77.99
77013;BME280;67260;53.130;17.982;2023-11-21T09:11:08;101097.81;;;1.61;76.63
77013;BME280;67260;53.130;17.982;2023-11-21T09:13:35;101095.45;;;1.58;77.73
77013;BME280;67260;53.130;17.982;2023-11-21T09:16:03;101097.84;;;1.64;78.62
77013;BME280;67260;53.130;17.982;2023-11-21T09:18:42;101097.88;;;1.74;77.88
77013;BME280;67260;53.130;17.982;2023-11-21T09:21:12;101101.23;;;1.75;77.70
77013;BME280;67260;53.130;17.982;2023-11-21T09:23:39;101101.90;;;1.78;76.82
77013;BME280;67260;53.130;17.982;2023-11-21T09:26:06;101103.27;;;1.78;76.79
77013;BME280;67260;53.130;17.982;2023-11-21T09:28:33;101110.63;;;1.74;76.75
77013;BME280;67260;53.130;17.982;2023-11-21T09:34:09;101113.52;;;1.57;77.42
77013;BME280;67260;53.130;17.982;2023-11-21T09:36:37;101117.94;;;1.60;78.16
77013;BME280;67260;53.130;17.982;2023-11-21T09:39:05;101121.66;;;1.62;77.84
77013;BME280;67260;53.130;17.982;2023-11-21T09:41:52;101124.80;;;1.58;78.48
77013;BME280;67260;53.130;17.982;2023-11-21T09:44:46;101132.25;;;1.49;77.59
77013;BME280;67260;53.130;17.982;2023-11-21T09:47:15;101136.67;;;1.42;78.38
77013;BME280;67260;53.130;17.982;2023-11-21T09:49:47;101129.54;;;1.48;79.42
77013;BME280;67260;53.130;17.982;2023-11-21T09:52:22;101129.98;;;1.53;78.49
77013;BME280;67260;53.130;17.982;2023-11-21T09:54:55;101135.91;;;1.51;77.98
77013;BME280;67260;53.130;17.982;2023-11-21T09:57:28;101138.77;;;1.46;78.48
77013;BME280;67260;53.130;17.982;2023-11-21T09:59:55;101136.56;;;1.42;77.40
77013;BME280;67260;53.130;17.982;2023-11-21T10:02:27;101133.62;;;1.40;78.15
77013;BME280;67260;53.130;17.982;2023-11-21T10:07:58;101133.83;;;1.29;77.30
77013;BME280;67260;53.130;17.982;2023-11-21T10:10:25;101139.27;;;1.21;77.10
77013;BME280;67260;53.130;17.982;2023-11-21T10:12:55;101132.59;;;1.12;77.10
77013;BME280;67260;53.130;17.982;2023-11-21T10:15:51;101134.33;;;1.04;77.16
77013;BME280;67260;53.130;17.982;2023-11-21T10:18:20;101140.18;;;0.95;77.34
77013;BME280;67260;53.130;17.982;2023-11-21T10:20:53;101140.98;;;0.84;77.54
77013;BME280;67260;53.130;17.982;2023-11-21T10:26:52;101152.68;;;0.62;77.79
77013;BME280;67260;53.130;17.982;2023-11-21T10:29:22;101151.80;;;0.54;78.42
77013;BME280;67260;53.130;17.982;2023-11-21T10:31:50;101153.08;;;0.49;79.44
77013;BME280;67260;53.130;17.982;2023-11-21T10:34:19;101154.83;;;0.49;79.89
77013;BME280;67260;53.130;17.982;2023-11-21T10:36:46;101154.29;;;0.49;79.00
77013;BME280;67260;53.130;17.982;2023-11-21T10:39:22;101165.64;;;0.47;78.87
77013;BME280;67260;53.130;17.982;2023-11-21T10:41:50;101167.05;;;0.45;78.86
77013;BME280;67260;53.130;17.982;2023-11-21T10:44:18;101162.91;;;0.42;78.79
77013;BME280;67260;53.130;17.982;2023-11-21T10:46:57;101166.36;;;0.43;79.62
77013;BME280;67260;53.130;17.982;2023-11-21T10:49:27;101177.37;;;0.44;79.42
77013;BME280;67260;53.130;17.982;2023-11-21T10:51:54;101170.73;;;0.44;78.81
77013;BME280;67260;53.130;17.982;2023-11-21T10:54:23;101174.46;;;0.46;78.78
77013;BME280;67260;53.130;17.982;2023-11-21T10:56:56;101178.13;;;0.50;78.49
77013;BME280;67260;53.130;17.982;2023-11-21T11:29:42;101200.02;;;0.57;77.76
77013;BME280;67260;53.130;17.982;2023-11-21T11:36:44;101215.68;;;0.53;77.70
77013;BME280;67260;53.130;17.982;2023-11-21T11:42:01;101231.16;;;0.41;77.15
77013;BME280;67260;53.130;17.982;2023-11-21T11:47:31;101244.80;;;0.36;76.90
77013;BME280;67260;53.130;17.982;2023-11-21T11:54:36;101252.23;;;0.37;76.90
77013;BME280;67260;53.130;17.982;2023-11-21T11:57:03;101251.23;;;0.36;76.03
77013;BME280;67260;53.130;17.982;2023-11-21T12:00:19;101248.65;;;0.36;75.82
77013;BME280;67260;53.130;17.982;2023-11-21T12:05:47;101248.48;;;0.33;75.85
77013;BME280;67260;53.130;17.982;2023-11-21T12:08:16;101245.89;;;0.31;76.46
77013;BME280;67260;53.130;17.982;2023-11-21T12:10:43;101249.14;;;0.32;77.43
77013;BME280;67260;53.130;17.982;2023-11-21T12:13:10;101247.80;;;0.33;77.58
77013;BME280;67260;53.130;17.982;2023-11-21T12:15:38;101249.86;;;0.36;78.22
77013;BME280;67260;53.130;17.982;2023-11-21T12:18:09;101253.48;;;0.36;77.21
77013;BME280;67260;53.130;17.982;2023-11-21T12:20:36;101257.54;;;0.34;77.10
77013;BME280;67260;53.130;17.982;2023-11-21T12:23:05;101252.91;;;0.32;77.59
77013;BME280;67260;53.130;17.982;2023-11-21T12:25:32;101253.41;;;0.33;77.33
77013;BME280;67260;53.130;17.982;2023-11-21T12:28:00;101254.19;;;0.36;78.33
77013;BME280;67260;53.130;17.982;2023-11-21T12:30:29;101252.30;;;0.40;78.51
77013;BME280;67260;53.130;17.982;2023-11-21T12:32:59;101252.71;;;0.44;78.55
77013;BME280;67260;53.130;17.982;2023-11-21T12:35:30;101253.27;;;0.47;78.32
77013;BME280;67260;53.130;17.982;2023-11-21T13:10:45;101297.05;;;0.59;76.38
77013;BME280;67260;53.130;17.982;2023-11-21T13:13:14;101304.10;;;0.62;75.90
77013;BME280;67260;53.130;17.982;2023-11-21T13:19:25;101320.48;;;0.60;75.60
77013;BME280;67260;53.130;17.982;2023-11-21T13:21:53;101325.00;;;0.60;74.83
77013;BME280;67260;53.130;17.982;2023-11-21T13:24:21;101325.76;;;0.62;75.75
77013;BME280;67260;53.130;17.982;2023-11-21T13:26:54;101327.09;;;0.60;75.08
77013;BME280;67260;53.130;17.982;2023-11-21T13:29:21;101330.61;;;0.56;74.85
77013;BME280;67260;53.130;17.982;2023-11-21T13:31:49;101339.16;;;0.52;75.24
77013;BME280;67260;53.130;17.982;2023-11-21T13:34:17;101339.34;;;0.49;75.26
77013;BME280;67260;53.130;17.982;2023-11-21T13:36:47;101340.39;;;0.47;74.80
77013;BME280;67260;53.130;17.982;2023-11-21T13:48:33;101355.67;;;0.20;74.68
77013;BME280;67260;53.130;17.982;2023-11-21T13:51:12;101359.25;;;0.19;75.31
77013;BME280;67260;53.130;17.982;2023-11-21T13:53:48;101363.33;;;0.18;75.31
77013;BME280;67260;53.130;17.982;2023-11-21T14:02:26;101373.45;;;0.11;75.80
77013;BME280;67260;53.130;17.982;2023-11-21T14:05:02;101383.09;;;0.11;75.59
77013;BME280;67260;53.130;17.982;2023-11-21T14:07:35;101382.08;;;0.08;75.98
77013;BME280;67260;53.130;17.982;2023-11-21T14:10:06;101382.55;;;0.07;76.47
77013;BME280;67260;53.130;17.982;2023-11-21T14:12:43;101380.91;;;0.08;76.83
77013;BME280;67260;53.130;17.982;2023-11-21T14:15:10;101384.45;;;0.07;77.04
77013;BME280;67260;53.130;17.982;2023-11-21T14:17:39;101392.26;;;0.09;77.38
77013;BME280;67260;53.130;17.982;2023-11-21T14:20:08;101399.28;;;0.11;77.00
77013;BME280;67260;53.130;17.982;2023-11-21T14:22:42;101398.16;;;0.05;76.41
77013;BME280;67260;53.130;17.982;2023-11-21T14:25:09;101396.73;;;-0.01;76.77
77013;BME280;67260;53.130;17.982;2023-11-21T14:27:58;101402.42;;;-0.05;77.14
77013;BME280;67260;53.130;17.982;2023-11-21T14:30:25;101406.27;;;-0.07;77.01
77013;BME280;67260;53.130;17.982;2023-11-21T14:40:55;101423.48;;;-0.20;76.55
77013;BME280;67260;53.130;17.982;2023-11-21T14:43:24;101427.42;;;-0.21;77.06
77013;BME280;67260;53.130;17.982;2023-11-21T14:46:00;101435.38;;;-0.20;77.07
77013;BME280;67260;53.130;17.982;2023-11-21T14:52:15;101441.89;;;-0.17;76.47
77013;BME280;67260;53.130;17.982;2023-11-21T14:55:03;101443.26;;;-0.23;75.73
77013;BME280;67260;53.130;17.982;2023-11-21T15:04:29;101437.80;;;-0.36;75.68
77013;BME280;67260;53.130;17.982;2023-11-21T15:12:02;101450.34;;;-0.45;76.08
77013;BME280;67260;53.130;17.982;2023-11-21T15:40:42;101491.50;;;-0.57;74.79
77013;BME280;67260;53.130;17.982;2023-11-21T15:43:09;101491.72;;;-0.58;74.76
77013;BME280;67260;53.130;17.982;2023-11-21T15:45:39;101498.92;;;-0.59;74.28
77013;BME280;67260;53.130;17.982;2023-11-21T15:48:06;101499.77;;;-0.61;73.72
77013;BME280;67260;53.130;17.982;2023-11-21T15:51:02;101505.66;;;-0.61;74.39
77013;BME280;67260;53.130;17.982;2023-11-21T16:02:30;101524.90;;;-0.67;73.78
77013;BME280;67260;53.130;17.982;2023-11-21T16:15:53;101529.50;;;-0.82;73.77
77013;BME280;67260;53.130;17.982;2023-11-21T16:18:21;101524.89;;;-0.88;74.04
77013;BME280;67260;53.130;17.982;2023-11-21T16:20:52;101531.42;;;-0.92;74.56
77013;BME280;67260;53.130;17.982;2023-11-21T16:23:19;101537.94;;;-0.95;74.42
77013;BME280;67260;53.130;17.982;2023-11-21T16:25:48;101541.44;;;-1.01;74.54
77013;BME280;67260;53.130;17.982;2023-11-21T16:28:22;101544.86;;;-1.06;74.83
77013;BME280;67260;53.130;17.982;2023-11-21T16:31:03;101546.89;;;-1.10;74.81
77013;BME280;67260;53.130;17.982;2023-11-21T16:33:30;101549.61;;;-1.14;74.94
77013;BME280;67260;53.130;17.982;2023-11-21T16:35:57;101551.48;;;-1.13;75.47
77013;BME280;67260;53.130;17.982;2023-11-21T16:45:54;101548.66;;;-1.27;74.48
77013;BME280;67260;53.130;17.982;2023-11-21T16:59:42;101574.09;;;-1.38;75.37
77013;BME280;67260;53.130;17.982;2023-11-21T17:02:09;101577.01;;;-1.40;75.51
77013;BME280;67260;53.130;17.982;2023-11-21T17:04:36;101576.70;;;-1.43;75.59
77013;BME280;67260;53.130;17.982;2023-11-21T17:23:04;101586.65;;;-1.53;76.41
77013;BME280;67260;53.130;17.982;2023-11-21T17:34:27;101603.08;;;-1.59;76.34
77013;BME280;67260;53.130;17.982;2023-11-21T17:36:55;101614.64;;;-1.64;76.30
77013;BME280;67260;53.130;17.982;2023-11-21T17:39:26;101617.01;;;-1.66;76.66
77013;BME280;67260;53.130;17.982;2023-11-21T17:41:54;101620.58;;;-1.67;76.64
77013;BME280;67260;53.130;17.982;2023-11-21T17:44:31;101625.83;;;-1.70;76.76
77013;BME280;67260;53.130;17.982;2023-11-21T18:06:42;101658.41;;;-1.84;76.89
77013;BME280;67260;53.130;17.982;2023-11-21T18:09:10;101662.08;;;-1.85;76.96
77013;BME280;67260;53.130;17.982;2023-11-21T18:11:45;101666.06;;;-1.84;76.88
77013;BME280;67260;53.130;17.982;2023-11-21T18:14:14;101672.95;;;-1.84;76.72